createdAt,value
2018-09-19T00:02:22.315Z,73.18
2018-09-19T00:07:19.726Z,74.52
2018-09-19T00:12:17.163Z,74.57
2018-09-19T00:17:14.566Z,76.11
2018-09-19T00:22:11.974Z,76.03
2018-09-19T00:27:09.386Z,77.39
2018-09-19T00:32:06.912Z,77.50
2018-09-19T00:37:04.311Z,77.90
2018-09-19T00:42:01.741Z,78.71
2018-09-19T00:46:59.142Z,78.82
2018-09-19T00:51:56.634Z,79.16
2018-09-19T00:56:54.002Z,80.51
2018-09-19T01:01:51.620Z,80.74
2018-09-19T01:06:49.016Z,81.24
2018-09-19T01:11:46.455Z,82.03
2018-09-19T01:16:43.845Z,82.01
2018-09-19T01:21:41.226Z,81.78
2018-09-19T01:26:38.615Z,82.30
2018-09-19T01:31:36.070Z,83.21
2018-09-19T01:36:33.477Z,83.50
2018-09-19T01:41:30.946Z,84.30
2018-09-19T01:46:28.307Z,84.34
2018-09-19T01:51:25.695Z,84.70
2018-09-19T01:56:23.075Z,84.66
2018-09-19T02:01:20.452Z,82.56
2018-09-19T02:06:17.859Z,83.27
2018-09-19T02:11:15.279Z,84.67
2018-09-19T02:16:12.674Z,84.56
2018-09-19T02:21:10.072Z,84.59
2018-09-19T02:26:07.457Z,85.28
2018-09-19T02:31:04.850Z,85.37
2018-09-19T02:36:02.238Z,85.27
2018-09-19T02:40:59.652Z,85.64
2018-09-19T02:45:57.041Z,86.16
2018-09-19T02:50:54.452Z,85.28
2018-09-19T02:55:51.856Z,85.76
2018-09-19T03:00:49.244Z,85.47
2018-09-19T03:05:46.620Z,84.63
2018-09-19T03:10:44.047Z,85.22
2018-09-19T03:15:41.471Z,86.63
2018-09-19T03:20:38.888Z,86.31
2018-09-19T03:25:36.379Z,86.50
2018-09-19T03:30:33.786Z,84.08
2018-09-19T03:35:31.653Z,85.55
2018-09-19T03:40:29.049Z,86.94
2018-09-19T03:45:26.459Z,84.75
2018-09-19T03:50:23.849Z,86.17
2018-09-19T03:55:21.232Z,85.30
2018-09-19T04:00:18.649Z,85.56
2018-09-19T04:05:16.050Z,85.76
2018-09-19T04:10:14.560Z,85.32
2018-09-19T04:15:12.031Z,84.35
2018-09-19T04:20:09.416Z,84.45
2018-09-19T04:25:06.891Z,85.65
2018-09-19T04:30:04.429Z,84.81
2018-09-19T04:35:01.858Z,85.79
2018-09-19T04:40:01.001Z,85.07
2018-09-19T04:44:58.467Z,84.70
2018-09-19T04:49:55.833Z,85.57
2018-09-19T04:54:53.239Z,86.25
2018-09-19T04:59:50.932Z,84.96
2018-09-19T05:04:48.347Z,86.48
2018-09-19T05:09:50.404Z,86.25
2018-09-19T05:14:47.791Z,87.16
2018-09-19T05:19:45.179Z,84.74
2018-09-19T05:24:42.605Z,83.69
2018-09-19T05:29:40.003Z,81.30
2018-09-19T05:34:37.547Z,79.83
2018-09-19T05:39:42.676Z,76.74
2018-09-19T05:44:40.122Z,78.10
2018-09-19T05:49:37.603Z,79.00
2018-09-19T05:54:36.029Z,74.72
2018-09-19T05:59:33.466Z,70.36
2018-09-19T06:04:30.841Z,65.90
2018-09-19T06:09:37.956Z,66.51
2018-09-19T06:14:35.729Z,71.34
2018-09-19T06:19:33.143Z,71.32
2018-09-19T06:24:30.536Z,72.05
2018-09-19T06:29:28.049Z,69.86
2018-09-19T06:34:25.451Z,70.30
2018-09-19T06:39:33.632Z,70.86
2018-09-19T06:44:31.154Z,69.84
2018-09-19T06:49:28.592Z,70.14
2018-09-19T06:54:26.019Z,68.33
2018-09-19T06:59:23.507Z,67.47
2018-09-19T07:04:20.932Z,67.55
2018-09-19T07:09:26.883Z,66.86
2018-09-19T07:14:24.373Z,66.56
2018-09-19T07:19:21.857Z,66.16
2018-09-19T07:24:19.281Z,65.87
2018-09-19T07:29:16.676Z,65.29
2018-09-19T07:34:14.074Z,64.58
2018-09-19T07:39:14.846Z,64.14
2018-09-19T07:44:12.267Z,62.84
2018-09-19T07:49:09.702Z,61.56
2018-09-19T07:54:07.159Z,60.67
2018-09-19T07:59:04.572Z,60.22
2018-09-19T08:04:01.995Z,59.59
2018-09-19T08:08:59.409Z,60.04
2018-09-19T08:13:56.841Z,58.25
2018-09-19T08:18:54.302Z,56.97
2018-09-19T08:23:51.716Z,57.04
2018-09-19T08:28:49.468Z,57.60
2018-09-19T08:33:47.045Z,57.57
2018-09-19T08:38:44.475Z,57.60
2018-09-19T08:43:41.915Z,55.92
2018-09-19T08:48:39.466Z,54.25
2018-09-19T08:53:36.883Z,53.41
2018-09-19T08:58:34.307Z,52.08
2018-09-19T09:03:32.555Z,51.20
2018-09-19T09:08:29.955Z,50.31
2018-09-19T09:13:27.428Z,50.39
2018-09-19T09:18:24.804Z,50.19
2018-09-19T09:23:22.249Z,50.87
2018-09-19T09:28:19.619Z,49.53
2018-09-19T09:33:17.016Z,49.92
2018-09-19T09:38:14.415Z,50.02
2018-09-19T09:43:11.868Z,48.69
2018-09-19T09:48:09.300Z,48.68
2018-09-19T09:53:06.764Z,50.11
2018-09-19T09:58:04.120Z,51.41
2018-09-19T10:03:01.520Z,52.08
2018-09-19T10:07:58.915Z,52.58
2018-09-19T10:12:56.614Z,51.54
2018-09-19T10:17:54.003Z,50.63
2018-09-19T10:22:51.431Z,48.42
2018-09-19T10:27:48.815Z,49.18
2018-09-19T10:32:46.216Z,48.68
2018-09-19T10:37:43.629Z,48.44
2018-09-19T10:42:41.055Z,48.40
2018-09-19T10:47:38.472Z,49.38
2018-09-19T10:52:35.858Z,49.19
2018-09-19T10:57:33.286Z,47.30
2018-09-19T11:02:30.703Z,49.42
2018-09-19T11:07:28.115Z,48.38
2018-09-19T11:12:25.578Z,48.65
2018-09-19T11:17:22.988Z,47.06
2018-09-19T11:22:20.405Z,47.85
2018-09-19T11:27:17.823Z,46.91
2018-09-19T11:32:15.220Z,47.15
2018-09-19T11:37:12.632Z,46.25
2018-09-19T11:42:10.096Z,44.37
2018-09-19T11:47:07.524Z,45.92
2018-09-19T11:52:04.973Z,45.97
2018-09-19T11:57:02.359Z,45.71
2018-09-19T12:01:59.881Z,46.49
2018-09-19T12:06:57.277Z,46.55
2018-09-19T12:11:54.739Z,44.84
2018-09-19T12:16:52.152Z,43.83
2018-09-19T12:21:49.815Z,44.75
2018-09-19T12:26:47.248Z,46.17
2018-09-19T12:31:44.691Z,46.39
2018-09-19T12:36:42.139Z,46.88
2018-09-19T12:41:39.911Z,47.27
2018-09-19T12:46:37.415Z,46.91
2018-09-19T12:51:34.919Z,45.28
2018-09-19T12:56:32.431Z,45.83
2018-09-19T13:01:29.894Z,46.42
2018-09-19T13:06:27.333Z,45.71
2018-09-19T13:11:24.804Z,44.64
2018-09-19T13:16:22.298Z,45.59
2018-09-19T13:21:19.755Z,43.94
2018-09-19T13:26:17.194Z,44.63
2018-09-19T13:31:14.601Z,43.75
2018-09-19T13:36:12.038Z,44.47
2018-09-19T13:41:09.676Z,42.61
2018-09-19T13:46:07.519Z,43.88
2018-09-19T13:51:17.951Z,42.02
2018-09-19T13:56:15.360Z,42.14
2018-09-19T14:01:12.954Z,43.07
2018-09-19T14:06:10.367Z,41.11
2018-09-19T14:11:07.839Z,42.99
2018-09-19T14:16:06.155Z,42.92
2018-09-19T14:21:03.587Z,42.47
2018-09-19T14:26:00.999Z,43.09
2018-09-19T14:30:58.411Z,42.64
2018-09-19T14:35:55.924Z,42.41
2018-09-19T14:40:53.303Z,42.93
2018-09-19T14:45:50.709Z,42.36
2018-09-19T14:50:48.106Z,42.94
2018-09-19T14:55:45.519Z,41.83
2018-09-19T15:00:42.929Z,40.60
2018-09-19T15:05:40.344Z,42.29
2018-09-19T15:10:37.791Z,42.08
2018-09-19T15:15:35.291Z,41.72
2018-09-19T15:20:32.707Z,42.70
2018-09-19T15:25:30.210Z,42.10
2018-09-19T15:30:27.608Z,41.85
2018-09-19T15:35:25.026Z,41.75
2018-09-19T15:40:23.516Z,41.92
2018-09-19T15:45:20.945Z,40.71
2018-09-19T15:50:18.372Z,41.30
2018-09-19T15:55:15.794Z,40.53
2018-09-19T16:00:13.326Z,40.66
2018-09-19T16:05:12.231Z,40.90
2018-09-19T16:10:10.756Z,41.99
2018-09-19T16:15:08.156Z,41.32
2018-09-19T16:20:05.594Z,41.91
2018-09-19T16:25:03.068Z,42.24
2018-09-19T16:30:00.467Z,41.83
2018-09-19T16:34:57.867Z,42.26
2018-09-19T16:39:56.395Z,42.53
2018-09-19T16:44:53.809Z,41.41
2018-09-19T16:49:51.283Z,42.81
2018-09-19T16:54:48.710Z,42.80
2018-09-19T16:59:51.620Z,43.49
2018-09-19T17:04:51.803Z,44.95
2018-09-19T17:09:56.000Z,45.61
2018-09-19T17:14:53.397Z,45.61
2018-09-19T17:19:52.131Z,47.09
2018-09-19T17:24:52.760Z,46.75
2018-09-19T17:29:52.385Z,47.08
2018-09-19T17:34:58.508Z,47.67
2018-09-19T17:40:04.333Z,48.67
2018-09-19T17:45:06.092Z,49.38
2018-09-19T17:50:10.723Z,49.27
2018-09-19T17:55:10.992Z,50.22
2018-09-19T18:00:10.703Z,50.45
2018-09-19T18:05:10.357Z,50.65
2018-09-19T18:10:10.505Z,50.31
2018-09-19T18:15:09.809Z,50.24
2018-09-19T18:20:12.362Z,51.35
2018-09-19T18:25:11.013Z,51.56
2018-09-19T18:30:10.407Z,51.44
2018-09-19T18:35:11.509Z,52.13
2018-09-19T18:40:14.563Z,52.79
2018-09-19T18:45:13.217Z,54.20
2018-09-19T18:50:11.870Z,53.55
2018-09-19T18:55:11.231Z,53.69
2018-09-19T19:00:11.558Z,54.14
2018-09-19T19:05:09.406Z,53.77
2018-09-19T19:10:15.936Z,53.13
2018-09-19T19:15:17.556Z,54.26
2018-09-19T19:20:22.306Z,54.77
2018-09-19T19:25:28.418Z,54.09
2018-09-19T19:30:35.838Z,54.71
2018-09-19T19:35:40.962Z,54.45
2018-09-19T19:40:44.383Z,54.68
2018-09-19T19:45:45.917Z,54.62
2018-09-19T19:50:48.472Z,53.83
2018-09-19T19:55:54.794Z,53.77
2018-09-19T20:00:56.391Z,53.95
2018-09-19T20:06:03.701Z,54.46
2018-09-19T20:11:06.620Z,54.78
2018-09-19T20:16:08.006Z,55.28
2018-09-19T20:21:07.619Z,55.59
2018-09-19T20:26:09.090Z,56.31
2018-09-19T20:31:11.379Z,55.95
2018-09-19T20:36:14.005Z,58.24
2018-09-19T20:41:17.584Z,59.23
2018-09-19T20:46:18.415Z,61.26
2018-09-19T20:51:21.161Z,61.94
2018-09-19T20:56:21.277Z,60.43
2018-09-19T21:01:22.264Z,59.49
2018-09-19T21:06:25.686Z,58.49
2018-09-19T21:11:23.228Z,58.52
2018-09-19T21:16:25.871Z,58.22
2018-09-19T21:21:28.444Z,58.34
2018-09-19T21:26:34.372Z,60.16
2018-09-19T21:31:39.238Z,60.65
2018-09-19T21:36:41.341Z,62.02
2018-09-19T21:41:42.353Z,64.27
2018-09-19T21:46:42.515Z,64.43
2018-09-19T21:51:42.911Z,65.09
2018-09-19T21:56:41.861Z,65.44
2018-09-19T22:01:40.683Z,67.13
2018-09-19T22:06:39.360Z,67.23
2018-09-19T22:11:36.990Z,67.46
2018-09-19T22:16:34.402Z,67.94
2018-09-19T22:21:31.859Z,68.68
2018-09-19T22:26:29.235Z,68.77
2018-09-19T22:31:26.871Z,69.02
2018-09-19T22:36:24.260Z,70.09
2018-09-19T22:41:21.877Z,69.77
2018-09-19T22:46:19.338Z,69.80
2018-09-19T22:51:16.768Z,69.39
2018-09-19T22:56:14.479Z,70.24
2018-09-19T23:01:11.863Z,69.33
2018-09-19T23:06:09.247Z,69.54
2018-09-19T23:11:06.703Z,69.97
2018-09-19T23:16:04.111Z,70.89
2018-09-19T23:21:01.491Z,71.17
2018-09-19T23:25:58.908Z,71.60
2018-09-19T23:30:56.374Z,71.07
2018-09-19T23:35:53.775Z,71.95
2018-09-19T23:40:51.195Z,72.46
2018-09-19T23:45:48.677Z,71.81
2018-09-19T23:50:46.071Z,72.18
2018-09-19T23:55:43.453Z,72.37
